Time;durP1;ratioP1;P1;durP2;ratioP2;P2;SDS_P1;SDS_P2;PMS_P1;PMS_P2;Temp;Humidity;BMP_temperature;BMP_pressure;BME280_temperature;BME280_humidity;BME280_pressure;Samples;Min_cycle;Max_cycle;Signal;HPM_P1;HPM_P2
2024/02/12 00:01:22;;;;;;;13.50;4.45;;;;;;;;;;5000080;28;20045;-79
2024/02/12 00:03:48;;;;;;;13.52;4.25;;;;;;;;;;5008816;28;20029;-78
2024/02/12 00:06:14;;;;;;;11.45;3.92;;;;;;;;;;5005246;28;20033;-78
2024/02/12 00:08:41;;;;;;;14.57;4.28;;;;;;;;;;5005955;28;20037;-79
2024/02/12 00:11:08;;;;;;;11.48;4.13;;;;;;;;;;5001725;28;20048;-75
2024/02/12 00:13:34;;;;;;;13.45;5.50;;;;;;;;;;5002218;28;20032;-79
2024/02/12 00:16:00;;;;;;;16.23;5.65;;;;;;;;;;5001909;28;20030;-78
2024/02/12 00:18:27;;;;;;;15.13;5.45;;;;;;;;;;5007786;28;20025;-78
2024/02/12 00:20:53;;;;;;;14.90;5.20;;;;;;;;;;5005681;28;20034;-78
2024/02/12 00:23:19;;;;;;;27.83;18.58;;;;;;;;;;5006868;28;20025;-78
2024/02/12 00:25:47;;;;;;;34.40;20.20;;;;;;;;;;5004544;28;20037;-78
2024/02/12 00:28:14;;;;;;;126.75;97.30;;;;;;;;;;5000884;28;20033;-78
2024/02/12 00:30:40;;;;;;;29.45;19.02;;;;;;;;;;4998465;28;20083;-78
2024/02/12 00:33:09;;;;;;;26.52;14.75;;;;;;;;;;4999618;28;20056;-77
2024/02/12 00:35:38;;;;;;;45.95;30.08;;;;;;;;;;5003402;28;20048;-79
2024/02/12 00:38:04;;;;;;;37.72;24.30;;;;;;;;;;5015102;28;20033;-81
2024/02/12 00:40:32;;;;;;;47.65;33.83;;;;;;;;;;5010399;28;20045;-82
2024/02/12 00:42:58;;;;;;;55.40;37.00;;;;;;;;;;5012820;28;20018;-79
2024/02/12 00:45:27;;;;;;;44.22;28.73;;;;;;;;;;5009967;28;20450;-81
2024/02/12 00:47:55;;;;;;;32.83;20.15;;;;;;;;;;5008604;28;20026;-79
2024/02/12 00:50:22;;;;;;;41.92;25.48;;;;;;;;;;5003444;28;20135;-79
2024/02/12 00:52:49;;;;;;;16.35;7.50;;;;;;;;;;5011768;28;20030;-79
2024/02/12 00:55:15;;;;;;;13.63;3.95;;;;;;;;;;5009914;28;20037;-80
2024/02/12 00:57:43;;;;;;;14.10;4.50;;;;;;;;;;5008650;28;20026;-80
2024/02/12 01:00:14;;;;;;;17.15;7.72;;;;;;;;;;5016013;28;20026;-79
2024/02/12 01:02:40;;;;;;;23.55;13.23;;;;;;;;;;5014921;28;20066;-80
2024/02/12 01:05:09;;;;;;;13.38;4.30;;;;;;;;;;5017015;28;20061;-81
2024/02/12 01:07:41;;;;;;;21.17;10.88;;;;;;;;;;5017277;28;20057;-81
2024/02/12 01:10:08;;;;;;;16.65;6.78;;;;;;;;;;5018689;28;20033;-80
2024/02/12 01:12:35;;;;;;;19.05;7.00;;;;;;;;;;5011111;28;20043;-81
2024/02/12 01:15:03;;;;;;;18.80;8.25;;;;;;;;;;5018062;28;20026;-81
2024/02/12 01:17:32;;;;;;;25.30;12.30;;;;;;;;;;5014177;28;20469;-81
2024/02/12 01:20:01;;;;;;;21.17;11.38;;;;;;;;;;5021272;28;20075;-81
2024/02/12 01:22:28;;;;;;;13.80;4.25;;;;;;;;;;5001802;28;20068;-81
2024/02/12 01:24:55;;;;;;;15.50;7.28;;;;;;;;;;5007497;28;20049;-81
2024/02/12 01:27:23;;;;;;;;;;;;;;;;;;5015385;28;20112;-82
2024/02/12 01:29:49;;;;;;;20.38;10.13;;;;;;;;;;5019471;28;19920;-82
2024/02/12 01:32:15;;;;;;;29.27;13.93;;;;;;;;;;5019486;28;20061;-82
2024/02/12 01:34:44;;;;;;;16.50;6.57;;;;;;;;;;5013601;28;20022;-82
2024/02/12 01:37:10;;;;;;;12.35;4.53;;;;;;;;;;5017867;28;20065;-82
2024/02/12 01:39:36;;;;;;;16.95;4.35;;;;;;;;;;4999042;28;20029;-82
2024/02/12 01:42:12;;;;;;;13.25;4.38;;;;;;;;;;5001072;28;20022;-82
2024/02/12 01:45:00;;;;;;;13.33;4.60;;;;;;;;;;5001972;28;20442;-81
2024/02/12 01:47:26;;;;;;;17.45;6.60;;;;;;;;;;5003899;28;20096;-82
2024/02/12 01:49:55;;;;;;;;;;;;;;;;;;5007846;28;20023;-81
2024/02/12 01:52:23;;;;;;;14.70;4.90;;;;;;;;;;5001691;28;19914;-82
2024/02/12 01:54:52;;;;;;;11.75;3.20;;;;;;;;;;5001883;28;20026;-82
2024/02/12 01:57:19;;;;;;;13.52;3.08;;;;;;;;;;5002775;28;20188;-80
2024/02/12 01:59:45;;;;;;;14.10;3.03;;;;;;;;;;5003112;28;20033;-82
2024/02/12 02:02:14;;;;;;;13.35;3.38;;;;;;;;;;5005197;28;20485;-81
2024/02/12 02:04:41;;;;;;;13.20;3.53;;;;;;;;;;5002592;28;20105;-81
2024/02/12 02:07:16;;;;;;;13.20;3.25;;;;;;;;;;5005864;28;20850;-81
2024/02/12 02:09:43;;;;;;;13.25;3.15;;;;;;;;;;4999957;28;20045;-81
2024/02/12 02:12:09;;;;;;;14.25;3.15;;;;;;;;;;4998187;28;20469;-81
2024/02/12 02:14:35;;;;;;;11.10;3.60;;;;;;;;;;4994739;28;20060;-82
2024/02/12 02:17:01;;;;;;;11.38;3.08;;;;;;;;;;4994715;28;20033;-82
2024/02/12 02:19:30;;;;;;;14.35;3.30;;;;;;;;;;4994100;28;20479;-81
2024/02/12 02:21:57;;;;;;;11.68;3.38;;;;;;;;;;4991724;28;20022;-82
2024/02/12 02:24:23;;;;;;;10.68;3.42;;;;;;;;;;4992456;28;20445;-82
2024/02/12 02:26:49;;;;;;;12.43;3.60;;;;;;;;;;4994827;28;20040;-80
2024/02/12 02:29:16;;;;;;;14.23;3.90;;;;;;;;;;4993688;28;20073;-79
2024/02/12 02:31:42;;;;;;;12.50;2.90;;;;;;;;;;4989457;28;20061;-80
2024/02/12 02:34:08;;;;;;;12.98;3.78;;;;;;;;;;4994721;28;20140;-80
2024/02/12 02:36:34;;;;;;;12.45;3.30;;;;;;;;;;4996135;28;20037;-79
2024/02/12 02:39:03;;;;;;;11.43;3.17;;;;;;;;;;5027959;28;20029;-80
2024/02/12 02:41:31;;;;;;;13.98;3.42;;;;;;;;;;5009860;28;20024;-80
2024/02/12 02:43:57;;;;;;;12.95;3.75;;;;;;;;;;4994896;28;20029;-79
2024/02/12 02:46:26;;;;;;;13.32;3.60;;;;;;;;;;5022708;28;20041;-80
2024/02/12 02:48:53;;;;;;;14.13;3.58;;;;;;;;;;5008499;28;20029;-80
2024/02/12 02:51:26;;;;;;;12.57;3.00;;;;;;;;;;5010561;28;20044;-80
2024/02/12 02:53:53;;;;;;;14.32;3.30;;;;;;;;;;5019441;28;20060;-80
2024/02/12 02:56:19;;;;;;;14.85;3.17;;;;;;;;;;5012045;28;20036;-80
2024/02/12 02:58:49;;;;;;;14.07;3.28;;;;;;;;;;5008055;28;20033;-80
2024/02/12 03:01:19;;;;;;;14.27;3.63;;;;;;;;;;5009595;28;20036;-79
2024/02/12 03:03:50;;;;;;;12.70;3.67;;;;;;;;;;5026365;28;20024;-79
2024/02/12 03:06:19;;;;;;;14.50;3.50;;;;;;;;;;5027181;28;20055;-79
2024/02/12 03:08:48;;;;;;;12.60;3.40;;;;;;;;;;5007507;28;20599;-78
2024/02/12 03:11:18;;;;;;;13.88;3.60;;;;;;;;;;5028051;28;20124;-78
2024/02/12 03:13:45;;;;;;;14.38;3.45;;;;;;;;;;5026570;28;20599;-78
2024/02/12 03:16:15;;;;;;;13.25;3.85;;;;;;;;;;5021749;28;20511;-78
2024/02/12 03:18:42;;;;;;;12.23;3.45;;;;;;;;;;5008391;28;20037;-78
2024/02/12 03:21:10;;;;;;;12.30;3.78;;;;;;;;;;5013058;28;20107;-81
2024/02/12 03:23:36;;;;;;;14.88;3.67;;;;;;;;;;5026333;28;20037;-81
2024/02/12 03:26:06;;;;;;;15.50;3.53;;;;;;;;;;5030382;28;20297;-81
2024/02/12 03:28:33;;;;;;;13.90;3.05;;;;;;;;;;5025766;28;20053;-81
2024/02/12 03:31:05;;;;;;;12.93;3.58;;;;;;;;;;5029394;28;20034;-81
2024/02/12 03:33:32;;;;;;;11.77;3.33;;;;;;;;;;5020849;28;20192;-80
2024/02/12 03:35:59;;;;;;;15.38;3.88;;;;;;;;;;5021557;28;20053;-80
2024/02/12 03:38:37;;;;;;;;;;;;;;;;;;5018364;28;20057;-81
2024/02/12 03:41:04;;;;;;;;;;;;;;;;;;5021046;28;19917;-80
2024/02/12 03:43:37;;;;;;;12.93;3.40;;;;;;;;;;5019341;28;19935;-81
2024/02/12 03:46:03;;;;;;;14.98;3.60;;;;;;;;;;5022278;28;20116;-81
2024/02/12 04:02:14;;;;;;;11.30;2.90;;;;;;;;;;5017666;28;20140;-79
2024/02/12 04:04:41;;;;;;;13.20;3.10;;;;;;;;;;5004536;28;20029;-79
2024/02/12 04:07:08;;;;;;;13.77;3.05;;;;;;;;;;5006949;28;20025;-79
2024/02/12 04:09:38;;;;;;;11.73;2.83;;;;;;;;;;5007801;28;20036;-79
2024/02/12 04:12:11;;;;;;;10.32;3.15;;;;;;;;;;5008550;28;20025;-79
2024/02/12 04:14:37;;;;;;;12.57;3.33;;;;;;;;;;4992739;28;20465;-79
2024/02/12 04:17:05;;;;;;;11.43;2.70;;;;;;;;;;5004364;28;20025;-78
2024/02/12 04:19:33;;;;;;;12.27;3.10;;;;;;;;;;5006590;28;20064;-79
2024/02/12 04:22:01;;;;;;;11.18;2.83;;;;;;;;;;5000974;28;20025;-81
2024/02/12 04:24:29;;;;;;;10.50;2.72;;;;;;;;;;5018938;28;20332;-81
2024/02/12 04:26:57;;;;;;;11.52;2.78;;;;;;;;;;5023924;28;20454;-80
2024/02/12 04:29:26;;;;;;;14.98;3.08;;;;;;;;;;5025110;28;20029;-80
2024/02/12 04:31:52;;;;;;;10.80;2.88;;;;;;;;;;5021112;28;20867;-80
2024/02/12 04:34:19;;;;;;;10.38;2.80;;;;;;;;;;5008923;28;20634;-79
2024/02/12 04:36:45;;;;;;;;;;;;;;;;;;5011587;28;20603;-79
2024/02/12 04:39:14;;;;;;;11.27;3.03;;;;;;;;;;5008364;28;19917;-80
2024/02/12 04:41:41;;;;;;;10.32;2.60;;;;;;;;;;5010696;28;20021;-81
2024/02/12 04:44:07;;;;;;;;;;;;;;;;;;5026868;28;20036;-80
2024/02/12 04:46:37;;;;;;;10.98;2.70;;;;;;;;;;5013913;28;20050;-79
2024/02/12 04:49:06;;;;;;;10.68;2.47;;;;;;;;;;5012210;28;20112;-79
2024/02/12 04:51:33;;;;;;;11.52;3.08;;;;;;;;;;5014239;28;20042;-80
2024/02/12 04:54:00;;;;;;;11.77;2.80;;;;;;;;;;5023502;28;20801;-79
2024/02/12 04:56:25;;;;;;;;;;;;;;;;;;4999494;28;20041;-79
2024/02/12 04:58:53;;;;;;;11.55;2.75;;;;;;;;;;5022529;28;19913;-79
2024/02/12 05:01:19;;;;;;;12.32;2.47;;;;;;;;;;5002275;28;20032;-80
2024/02/12 05:03:50;;;;;;;11.45;2.67;;;;;;;;;;5011011;28;20495;-80
2024/02/12 05:06:16;;;;;;;10.93;2.63;;;;;;;;;;5026616;28;20033;-80
2024/02/12 05:08:43;;;;;;;12.75;2.70;;;;;;;;;;5009595;28;21331;-78
2024/02/12 05:11:09;;;;;;;10.60;2.78;;;;;;;;;;5022230;28;20038;-80
2024/02/12 05:13:35;;;;;;;9.93;2.30;;;;;;;;;;5015783;28;20071;-78
2024/02/12 05:16:08;;;;;;;14.70;2.90;;;;;;;;;;5019365;28;20028;-79
2024/02/12 05:24:09;;;;;;;10.18;2.60;;;;;;;;;;5021807;28;20048;-81
2024/02/12 05:26:35;;;;;;;10.30;2.50;;;;;;;;;;5021396;28;20040;-78
2024/02/12 05:29:03;;;;;;;11.25;2.70;;;;;;;;;;5021974;28;20022;-78
2024/02/12 05:31:29;;;;;;;14.02;2.75;;;;;;;;;;5005744;28;20087;-79
2024/02/12 05:33:55;;;;;;;13.07;2.83;;;;;;;;;;5009955;28;20013;-78
2024/02/12 05:36:22;;;;;;;13.27;2.63;;;;;;;;;;5020161;28;20040;-79
2024/02/12 05:38:50;;;;;;;9.50;2.30;;;;;;;;;;5004850;28;20092;-79
2024/02/12 05:41:16;;;;;;;10.27;2.63;;;;;;;;;;5014083;28;20025;-80
2024/02/12 05:43:42;;;;;;;12.23;2.67;;;;;;;;;;5011976;28;20839;-79
2024/02/12 05:46:09;;;;;;;12.13;2.83;;;;;;;;;;5024491;28;20492;-79
2024/02/12 05:48:36;;;;;;;14.80;3.13;;;;;;;;;;5014889;28;20040;-79
2024/02/12 05:51:02;;;;;;;12.57;2.95;;;;;;;;;;5016199;28;20037;-78
2024/02/12 05:53:28;;;;;;;11.73;3.15;;;;;;;;;;5032204;28;20622;-79
2024/02/12 05:55:58;;;;;;;13.75;3.63;;;;;;;;;;5026818;28;20643;-79
2024/02/12 05:58:27;;;;;;;11.55;4.03;;;;;;;;;;5005539;28;20796;-79
2024/02/12 06:00:56;;;;;;;12.95;3.22;;;;;;;;;;5011725;28;20025;-79
2024/02/12 06:03:23;;;;;;;10.80;2.97;;;;;;;;;;5014245;28;20025;-79
2024/02/12 06:05:50;;;;;;;13.23;3.45;;;;;;;;;;5030953;28;20032;-79
2024/02/12 06:08:16;;;;;;;15.10;3.53;;;;;;;;;;5027757;28;20033;-79
2024/02/12 06:10:46;;;;;;;15.68;3.50;;;;;;;;;;5021827;28;20064;-79
2024/02/12 06:13:12;;;;;;;13.95;3.30;;;;;;;;;;5026080;28;20048;-78
2024/02/12 06:15:39;;;;;;;10.98;3.17;;;;;;;;;;5025586;28;20517;-79
2024/02/12 06:18:07;;;;;;;13.25;2.95;;;;;;;;;;5025479;28;20030;-79
2024/02/12 06:20:35;;;;;;;11.77;3.22;;;;;;;;;;5022739;28;20032;-79
2024/02/12 06:23:01;;;;;;;14.05;3.10;;;;;;;;;;5021764;28;20040;-79
2024/02/12 06:25:27;;;;;;;12.05;3.58;;;;;;;;;;5012287;28;20842;-79
2024/02/12 06:27:53;;;;;;;16.10;4.18;;;;;;;;;;5022553;28;20167;-78
2024/02/12 06:30:19;;;;;;;13.15;4.05;;;;;;;;;;5008806;28;20121;-79
2024/02/12 06:32:47;;;;;;;12.95;4.05;;;;;;;;;;5016166;28;20032;-79
2024/02/12 06:35:14;;;;;;;11.25;3.35;;;;;;;;;;5025527;28;20882;-79
2024/02/12 06:37:40;;;;;;;14.75;4.30;;;;;;;;;;5027220;28;20487;-79
2024/02/12 06:40:09;;;;;;;14.57;4.97;;;;;;;;;;5007641;28;20331;-81
2024/02/12 06:42:36;;;;;;;13.40;4.00;;;;;;;;;;5016132;28;20027;-79
2024/02/12 06:45:03;;;;;;;13.20;4.25;;;;;;;;;;5013097;28;20024;-80
2024/02/12 06:47:29;;;;;;;13.63;5.20;;;;;;;;;;5014935;28;20083;-80
2024/02/12 06:49:55;;;;;;;15.25;4.05;;;;;;;;;;5016338;28;20129;-80
2024/02/12 06:52:21;;;;;;;15.02;3.83;;;;;;;;;;5016996;28;20095;-80
2024/02/12 06:54:48;;;;;;;13.18;3.50;;;;;;;;;;5026992;28;20025;-80
2024/02/12 06:57:18;;;;;;;14.18;3.28;;;;;;;;;;5018115;28;20067;-80
2024/02/12 06:59:45;;;;;;;13.30;3.92;;;;;;;;;;5032026;28;20120;-80
2024/02/12 07:02:12;;;;;;;12.70;3.45;;;;;;;;;;5029366;28;20043;-80
2024/02/12 07:04:40;;;;;;;11.60;3.17;;;;;;;;;;5028371;28;20083;-80
2024/02/12 07:07:07;;;;;;;13.80;3.10;;;;;;;;;;5010048;28;20040;-81
2024/02/12 07:09:35;;;;;;;14.73;3.10;;;;;;;;;;5013948;28;20044;-82
2024/02/12 07:12:01;;;;;;;10.45;2.83;;;;;;;;;;5011238;28;20300;-82
2024/02/12 07:14:28;;;;;;;;;;;;;;;;;;5022795;28;20033;-81
2024/02/12 07:16:54;;;;;;;13.32;2.95;;;;;;;;;;5027127;28;19916;-80
2024/02/12 07:19:20;;;;;;;12.35;2.92;;;;;;;;;;5026402;28;20032;-80
2024/02/12 07:21:46;;;;;;;12.45;3.22;;;;;;;;;;5038310;28;20017;-81
2024/02/12 07:24:12;;;;;;;13.38;4.35;;;;;;;;;;5025764;28;20093;-82
2024/02/12 07:26:39;;;;;;;11.75;3.67;;;;;;;;;;5021006;28;20013;-82
2024/02/12 07:29:07;;;;;;;15.32;4.43;;;;;;;;;;5035430;28;20112;-82
2024/02/12 07:31:34;;;;;;;13.35;3.53;;;;;;;;;;5016832;28;20033;-80
2024/02/12 07:34:02;;;;;;;14.27;3.45;;;;;;;;;;5017873;28;20033;-80
2024/02/12 07:36:28;;;;;;;13.60;3.40;;;;;;;;;;5019470;28;20144;-80
2024/02/12 07:38:55;;;;;;;14.00;3.78;;;;;;;;;;5024882;28;20574;-80
2024/02/12 07:41:21;;;;;;;11.23;3.15;;;;;;;;;;5018678;28;20028;-81
2024/02/12 07:43:47;;;;;;;13.63;3.38;;;;;;;;;;5015946;28;20555;-80
2024/02/12 07:46:14;;;;;;;13.35;3.30;;;;;;;;;;5030226;28;20029;-81
2024/02/12 07:48:42;;;;;;;14.07;3.47;;;;;;;;;;5022681;28;20033;-80
2024/02/12 07:51:14;;;;;;;12.35;3.08;;;;;;;;;;5050432;28;20022;-80
2024/02/12 07:53:42;;;;;;;10.93;2.88;;;;;;;;;;5031619;28;20772;-79
2024/02/12 07:56:13;;;;;;;10.90;3.05;;;;;;;;;;5024107;28;20037;-79
2024/02/12 07:58:39;;;;;;;10.57;3.22;;;;;;;;;;5023920;28;20665;-80
2024/02/12 08:01:08;;;;;;;13.48;3.30;;;;;;;;;;5030530;28;20025;-79
2024/02/12 08:03:34;;;;;;;15.40;7.78;;;;;;;;;;5015797;28;20140;-83
2024/02/12 08:06:01;;;;;;;13.13;4.25;;;;;;;;;;5026841;28;20017;-83
2024/02/12 08:08:27;;;;;;;13.85;5.78;;;;;;;;;;5022659;28;20437;-84
2024/02/12 08:10:53;;;;;;;12.35;4.30;;;;;;;;;;5032399;28;20098;-82
2024/02/12 08:13:21;;;;;;;12.27;4.10;;;;;;;;;;5024976;28;20031;-82
2024/02/12 08:15:48;;;;;;;12.82;3.50;;;;;;;;;;5017772;28;20693;-81
2024/02/12 08:18:14;;;;;;;14.30;5.03;;;;;;;;;;5035710;28;20029;-81
2024/02/12 08:20:41;;;;;;;11.50;4.72;;;;;;;;;;5035430;28;20084;-82
2024/02/12 08:23:08;;;;;;;15.20;5.15;;;;;;;;;;5032148;28;20044;-83
2024/02/12 08:25:38;;;;;;;12.23;4.40;;;;;;;;;;5025837;28;20383;-82
2024/02/12 08:28:04;;;;;;;11.02;3.58;;;;;;;;;;5031424;28;20528;-82
2024/02/12 08:30:31;;;;;;;11.35;3.40;;;;;;;;;;5048408;28;20037;-82
2024/02/12 08:32:59;;;;;;;14.95;5.55;;;;;;;;;;5032154;28;20024;-82
2024/02/12 08:35:25;;;;;;;15.77;7.55;;;;;;;;;;5021846;28;20025;-81
2024/02/12 08:37:51;;;;;;;;;;;;;;;;;;5027435;28;20049;-88
2024/02/12 08:40:17;;;;;;;17.30;8.93;;;;;;;;;;5023284;28;19919;-87
2024/02/12 08:42:47;;;;;;;17.38;7.38;;;;;;;;;;5014487;28;20025;-87
2024/02/12 08:45:13;;;;;;;11.35;4.55;;;;;;;;;;5016164;28;20591;-88
2024/02/12 08:47:39;;;;;;;12.85;4.38;;;;;;;;;;5011347;28;20036;-87
2024/02/12 08:50:07;;;;;;;12.23;3.70;;;;;;;;;;5016195;28;20035;-88
2024/02/12 08:52:33;;;;;;;13.82;3.65;;;;;;;;;;5027573;28;20112;-85
2024/02/12 08:55:01;;;;;;;10.52;3.65;;;;;;;;;;5017320;28;20138;-87
2024/02/12 08:57:27;;;;;;;12.25;4.10;;;;;;;;;;5012387;28;20092;-86
2024/02/12 08:59:54;;;;;;;12.80;5.03;;;;;;;;;;5008607;28;20100;-86
2024/02/12 09:02:23;;;;;;;13.73;4.43;;;;;;;;;;5017382;28;20473;-87
2024/02/12 09:04:49;;;;;;;12.63;4.28;;;;;;;;;;5017378;28;20021;-85
2024/02/12 09:07:15;;;;;;;10.43;3.30;;;;;;;;;;5010693;28;20080;-79
2024/02/12 09:09:42;;;;;;;11.02;3.40;;;;;;;;;;5005617;28;20037;-80
2024/02/12 09:12:10;;;;;;;12.48;3.95;;;;;;;;;;5003537;28;20052;-80
2024/02/12 09:14:36;;;;;;;14.85;4.18;;;;;;;;;;5014176;28;20032;-78
2024/02/12 09:17:02;;;;;;;;;;;;;;;;;;5022463;28;20040;-78
2024/02/12 09:19:29;;;;;;;12.55;3.40;;;;;;;;;;5014513;28;19913;-80
2024/02/12 09:21:56;;;;;;;9.88;2.90;;;;;;;;;;5010325;28;20064;-80
2024/02/12 09:24:25;;;;;;;;;;;;;;;;;;5012684;28;20124;-83
2024/02/12 09:26:52;;;;;;;11.32;2.50;;;;;;;;;;5015328;28;19920;-80
2024/02/12 09:29:19;;;;;;;8.90;2.30;;;;;;;;;;5025437;28;20034;-80
2024/02/12 09:31:45;;;;;;;9.60;2.42;;;;;;;;;;5025250;28;20116;-80
2024/02/12 09:34:11;;;;;;;;;;;;;;;;;;5013893;28;20041;-80
2024/02/12 09:36:42;;;;;;;8.82;2.50;;;;;;;;;;5011606;28;19935;-80
2024/02/12 09:39:09;;;;;;;9.07;2.78;;;;;;;;;;5014449;28;20029;-80
2024/02/12 09:41:37;;;;;;;9.45;3.03;;;;;;;;;;5004909;28;20052;-81
2024/02/12 09:44:07;;;;;;;9.23;2.35;;;;;;;;;;5006741;28;20047;-80
2024/02/12 09:46:37;;;;;;;9.13;2.30;;;;;;;;;;5022327;28;20110;-79
2024/02/12 09:49:08;;;;;;;8.15;2.33;;;;;;;;;;5025835;28;20136;-79
2024/02/12 09:51:34;;;;;;;8.88;2.10;;;;;;;;;;5010221;28;20558;-79
2024/02/12 09:54:02;;;;;;;7.20;2.13;;;;;;;;;;5022094;28;20037;-79
2024/02/12 09:56:31;;;;;;;9.98;2.05;;;;;;;;;;5013538;28;20029;-79
2024/02/12 09:58:57;;;;;;;8.32;1.90;;;;;;;;;;5023677;28;20035;-79
2024/02/12 10:01:24;;;;;;;8.63;2.40;;;;;;;;;;5009675;28;20021;-79
2024/02/12 10:03:50;;;;;;;10.65;2.35;;;;;;;;;;5023270;28;20043;-79
2024/02/12 10:06:16;;;;;;;9.43;2.65;;;;;;;;;;5004337;28;20069;-78
2024/02/12 10:08:43;;;;;;;10.82;2.30;;;;;;;;;;5020467;28;20361;-78
2024/02/12 10:11:11;;;;;;;10.98;2.30;;;;;;;;;;5012185;28;20124;-78
2024/02/12 10:13:49;;;;;;;11.00;2.45;;;;;;;;;;5021917;28;20059;-78
2024/02/12 10:16:15;;;;;;;12.50;3.40;;;;;;;;;;5009272;28;20044;-77
2024/02/12 10:18:41;;;;;;;9.25;3.08;;;;;;;;;;5016003;28;20072;-79
2024/02/12 10:21:08;;;;;;;9.38;2.78;;;;;;;;;;5008183;28;20044;-79
2024/02/12 10:23:34;;;;;;;9.52;3.42;;;;;;;;;;5003913;28;20026;-79
2024/02/12 10:26:00;;;;;;;9.38;3.28;;;;;;;;;;5010700;28;20338;-79
2024/02/12 10:28:26;;;;;;;10.85;2.42;;;;;;;;;;5018959;28;20111;-79
2024/02/12 10:30:53;;;;;;;10.27;3.00;;;;;;;;;;5022769;28;20029;-79
2024/02/12 10:33:20;;;;;;;11.63;4.13;;;;;;;;;;5024515;28;20079;-80
2024/02/12 10:35:48;;;;;;;10.55;4.07;;;;;;;;;;5015471;28;20044;-79
2024/02/12 10:38:16;;;;;;;9.52;3.95;;;;;;;;;;5013994;28;20296;-79
2024/02/12 10:41:01;;;;;;;11.25;3.63;;;;;;;;;;5022833;28;20040;-79
2024/02/12 10:43:30;;;;;;;7.60;2.42;;;;;;;;;;5014999;28;20052;-79
2024/02/12 10:45:58;;;;;;;8.30;2.33;;;;;;;;;;5019899;28;20095;-80
2024/02/12 10:48:24;;;;;;;11.52;2.38;;;;;;;;;;5018496;28;20018;-80
2024/02/12 10:50:50;;;;;;;6.55;1.88;;;;;;;;;;5008588;28;20134;-80
2024/02/12 10:53:17;;;;;;;6.40;1.83;;;;;;;;;;5018717;28;20041;-80
2024/02/12 10:55:44;;;;;;;5.63;1.20;;;;;;;;;;5008630;28;20029;-80
2024/02/12 10:58:13;;;;;;;5.65;1.30;;;;;;;;;;5011481;28;20033;-80
2024/02/12 11:00:40;;;;;;;3.75;1.02;;;;;;;;;;5020570;28;20120;-80
2024/02/12 11:03:06;;;;;;;4.93;1.00;;;;;;;;;;5015154;28;20036;-78
2024/02/12 11:05:42;;;;;;;4.25;1.10;;;;;;;;;;5019956;28;20030;-79
2024/02/12 11:08:18;;;;;;;2.30;0.68;;;;;;;;;;5010636;28;20048;-78
2024/02/12 11:10:49;;;;;;;5.40;1.63;;;;;;;;;;5010164;28;20036;-79
2024/02/12 11:13:16;;;;;;;4.95;1.42;;;;;;;;;;5007097;28;20401;-77
2024/02/12 11:15:55;;;;;;;4.78;1.00;;;;;;;;;;5008683;28;20797;-80
2024/02/12 11:18:22;;;;;;;1.85;0.70;;;;;;;;;;5026175;28;20510;-77
2024/02/12 11:20:51;;;;;;;2.80;0.65;;;;;;;;;;5023205;28;20652;-81
2024/02/12 11:23:24;;;;;;;4.53;0.85;;;;;;;;;;5020530;28;20057;-78
2024/02/12 11:25:51;;;;;;;3.83;0.80;;;;;;;;;;5017991;28;20226;-78
2024/02/12 11:28:18;;;;;;;3.60;0.90;;;;;;;;;;5022594;28;20025;-78
2024/02/12 11:30:50;;;;;;;1.65;0.50;;;;;;;;;;5020023;28;20049;-77
2024/02/12 11:33:17;;;;;;;4.43;0.70;;;;;;;;;;5009386;28;20107;-77
2024/02/12 11:35:43;;;;;;;3.15;1.00;;;;;;;;;;5007343;28;20353;-80
2024/02/12 11:38:13;;;;;;;2.38;0.75;;;;;;;;;;5010130;28;20049;-80
2024/02/12 11:40:40;;;;;;;6.35;0.90;;;;;;;;;;5008378;28;20033;-80
2024/02/12 11:43:06;;;;;;;3.30;0.68;;;;;;;;;;5006014;28;20033;-80
2024/02/12 11:45:35;;;;;;;2.92;0.88;;;;;;;;;;5005652;28;20034;-79
2024/02/12 11:48:14;;;;;;;5.45;1.00;;;;;;;;;;5009143;28;20030;-80
2024/02/12 11:50:40;;;;;;;2.83;0.60;;;;;;;;;;5004097;28;20038;-79
2024/02/12 11:53:06;;;;;;;2.42;0.60;;;;;;;;;;5003035;28;20100;-80
2024/02/12 11:55:33;;;;;;;3.38;1.30;;;;;;;;;;5005607;28;20033;-79
2024/02/12 11:57:59;;;;;;;5.10;1.10;;;;;;;;;;5002361;28;20038;-80
2024/02/12 12:00:28;;;;;;;4.18;1.35;;;;;;;;;;4999128;28;20045;-80
2024/02/12 12:02:55;;;;;;;6.18;1.27;;;;;;;;;;5000720;28;20095;-80
2024/02/12 12:05:25;;;;;;;3.05;0.77;;;;;;;;;;5001448;28;20092;-80
2024/02/12 12:07:52;;;;;;;2.80;0.60;;;;;;;;;;5009563;28;20030;-80
2024/02/12 12:10:25;;;;;;;3.67;1.00;;;;;;;;;;5002496;28;20034;-80
2024/02/12 12:12:51;;;;;;;4.70;1.20;;;;;;;;;;4994951;28;20155;-80
2024/02/12 12:15:18;;;;;;;3.45;0.80;;;;;;;;;;4999020;28;20044;-80
2024/02/12 12:17:46;;;;;;;4.35;1.00;;;;;;;;;;5000459;28;20614;-80
2024/02/12 12:20:15;;;;;;;3.75;0.85;;;;;;;;;;5000285;28;20034;-79
2024/02/12 12:22:42;;;;;;;4.45;0.73;;;;;;;;;;5001255;28;20037;-80
2024/02/12 12:25:09;;;;;;;4.22;1.20;;;;;;;;;;5003431;28;20610;-79
2024/02/12 12:27:38;;;;;;;5.03;1.10;;;;;;;;;;4998671;28;20029;-79
2024/02/12 12:30:26;;;;;;;2.97;0.75;;;;;;;;;;5004431;28;20030;-79
2024/02/12 12:32:52;;;;;;;3.40;0.88;;;;;;;;;;4999679;28;20136;-80
2024/02/12 12:35:20;;;;;;;2.95;0.85;;;;;;;;;;5005332;28;20045;-80
2024/02/12 12:37:46;;;;;;;2.75;0.90;;;;;;;;;;5008160;28;20049;-78
2024/02/12 12:40:18;;;;;;;3.95;0.98;;;;;;;;;;5017613;28;20030;-79
2024/02/12 12:42:47;;;;;;;3.55;0.57;;;;;;;;;;5004201;28;20029;-79
2024/02/12 12:45:14;;;;;;;3.00;0.82;;;;;;;;;;5013950;28;20520;-80
2024/02/12 12:47:48;;;;;;;2.85;0.80;;;;;;;;;;5006205;28;20030;-80
2024/02/12 12:50:15;;;;;;;2.15;0.80;;;;;;;;;;5008219;28;20029;-78
2024/02/12 12:52:43;;;;;;;3.65;0.70;;;;;;;;;;5003904;28;20071;-80
2024/02/12 12:55:14;;;;;;;4.25;0.93;;;;;;;;;;5018658;28;20029;-79
2024/02/12 12:57:41;;;;;;;3.85;0.90;;;;;;;;;;5007160;28;20056;-80
2024/02/12 13:00:26;;;;;;;3.80;0.90;;;;;;;;;;5022819;28;20033;-79
2024/02/12 13:02:58;;;;;;;3.92;0.77;;;;;;;;;;5026836;28;20090;-79
2024/02/12 13:05:25;;;;;;;7.13;2.35;;;;;;;;;;5005519;28;20045;-78
2024/02/12 13:07:56;;;;;;;6.50;1.77;;;;;;;;;;5026051;28;20033;-79
2024/02/12 13:10:25;;;;;;;5.07;1.20;;;;;;;;;;5015627;28;20037;-78
2024/02/12 13:12:54;;;;;;;5.45;1.90;;;;;;;;;;5016010;28;20035;-79
2024/02/12 13:15:20;;;;;;;5.65;1.83;;;;;;;;;;5017764;28;20075;-80
2024/02/12 13:17:47;;;;;;;6.35;2.42;;;;;;;;;;5018469;28;20024;-79
2024/02/12 13:20:24;;;;;;;5.38;1.60;;;;;;;;;;5011466;28;20029;-78
2024/02/12 13:22:54;;;;;;;3.78;1.20;;;;;;;;;;5008027;28;20306;-80
2024/02/12 13:25:21;;;;;;;5.45;1.00;;;;;;;;;;5019338;28;20033;-79
2024/02/12 13:27:49;;;;;;;6.55;2.30;;;;;;;;;;5019602;28;20022;-79
2024/02/12 13:30:15;;;;;;;6.63;1.90;;;;;;;;;;5028019;28;20029;-80
2024/02/12 13:32:43;;;;;;;6.43;2.53;;;;;;;;;;5013960;28;20100;-79
2024/02/12 13:35:14;;;;;;;7.97;3.50;;;;;;;;;;5037830;28;20243;-79
2024/02/12 13:37:40;;;;;;;5.95;1.30;;;;;;;;;;5014071;28;20486;-80
2024/02/12 13:40:09;;;;;;;7.38;2.35;;;;;;;;;;5009506;28;20116;-80
2024/02/12 13:42:36;;;;;;;5.97;2.15;;;;;;;;;;5009480;28;20029;-79
2024/02/12 13:45:02;;;;;;;4.88;1.38;;;;;;;;;;5010550;28;20030;-79
2024/02/12 13:47:29;;;;;;;7.97;4.78;;;;;;;;;;4998764;28;20034;-79
2024/02/12 13:49:55;;;;;;;7.63;3.53;;;;;;;;;;5006182;28;20041;-79
2024/02/12 13:52:26;;;;;;;7.75;2.47;;;;;;;;;;5003836;28;20084;-79
2024/02/12 13:54:55;;;;;;;6.00;2.22;;;;;;;;;;5005528;28;20104;-78
2024/02/12 13:57:22;;;;;;;3.88;1.15;;;;;;;;;;5000764;28;20037;-78
2024/02/12 13:59:49;;;;;;;5.85;1.88;;;;;;;;;;5001805;28;20042;-78
2024/02/12 14:02:16;;;;;;;5.70;1.08;;;;;;;;;;5001818;28;20035;-79
2024/02/12 14:04:43;;;;;;;4.53;1.60;;;;;;;;;;5003666;28;20327;-78
2024/02/12 14:07:10;;;;;;;5.53;1.70;;;;;;;;;;5001993;28;20038;-77
2024/02/12 14:09:36;;;;;;;2.28;0.70;;;;;;;;;;5006235;28;20129;-79
2024/02/12 14:12:06;;;;;;;5.03;1.77;;;;;;;;;;5001404;28;20040;-79
2024/02/12 14:14:34;;;;;;;7.20;2.95;;;;;;;;;;5014152;28;20096;-86
2024/02/12 14:17:00;;;;;;;4.57;1.30;;;;;;;;;;5015944;28;20554;-79
2024/02/12 14:19:29;;;;;;;11.32;6.55;;;;;;;;;;5003737;28;20034;-79
2024/02/12 14:21:57;;;;;;;4.85;1.50;;;;;;;;;;5002171;28;20028;-80
2024/02/12 14:24:24;;;;;;;8.77;4.07;;;;;;;;;;5010491;28;20102;-82
2024/02/12 14:26:52;;;;;;;3.97;1.20;;;;;;;;;;5005921;28;20037;-81
2024/02/12 14:29:20;;;;;;;4.30;1.20;;;;;;;;;;5001443;28;20596;-81
2024/02/12 14:31:48;;;;;;;7.05;2.78;;;;;;;;;;4996228;28;20034;-81
2024/02/12 14:34:14;;;;;;;6.25;1.58;;;;;;;;;;5002248;28;20488;-82
2024/02/12 14:36:41;;;;;;;6.32;1.20;;;;;;;;;;5007117;28;20119;-82
2024/02/12 14:39:07;;;;;;;7.13;1.40;;;;;;;;;;5010240;28;20064;-83
2024/02/12 14:41:33;;;;;;;5.10;1.00;;;;;;;;;;5023940;28;20029;-80
2024/02/12 14:44:02;;;;;;;6.07;1.67;;;;;;;;;;5024843;28;20072;-79
2024/02/12 14:46:30;;;;;;;6.43;1.20;;;;;;;;;;5007951;28;20048;-78
2024/02/12 14:48:56;;;;;;;4.47;0.82;;;;;;;;;;5023326;28;20052;-77
2024/02/12 14:51:25;;;;;;;4.28;0.90;;;;;;;;;;5024658;28;20048;-77
2024/02/12 14:53:53;;;;;;;6.68;0.80;;;;;;;;;;5007160;28;20035;-77
2024/02/12 14:56:19;;;;;;;4.43;0.90;;;;;;;;;;5004165;28;20036;-77
2024/02/12 14:58:47;;;;;;;4.88;1.88;;;;;;;;;;5017721;28;20056;-76
2024/02/12 15:01:13;;;;;;;15.63;12.02;;;;;;;;;;5005547;28;20029;-76